Time;durP1;ratioP1;P1;durP2;ratioP2;P2;SDS_P1;SDS_P2;PMS_P1;PMS_P2;Temp;Humidity;BMP_temperature;BMP_pressure;BME280_temperature;BME280_humidity;BME280_pressure;Samples;Min_cycle;Max_cycle;Signal;HPM_P1;HPM_P2
2023/01/03 00:00:11;;;;;;;93.83;30.47;;;;;;;;;;5071462;28;20148;-66
2023/01/03 00:02:37;;;;;;;58.53;25.27;;;;;;;;;;5071561;28;20151;-65
2023/01/03 00:05:03;;;;;;;55.87;22.20;;;;;;;;;;5070067;28;20570;-65
2023/01/03 00:07:32;;;;;;;58.73;24.13;;;;;;;;;;5072093;28;20044;-65
2023/01/03 00:10:02;;;;;;;86.27;30.83;;;;;;;;;;5072563;28;20044;-65
2023/01/03 00:12:28;;;;;;;57.00;23.53;;;;;;;;;;5072358;28;20056;-65
2023/01/03 00:14:55;;;;;;;65.80;26.53;;;;;;;;;;5072503;28;20116;-65
2023/01/03 00:17:21;;;;;;;65.77;26.87;;;;;;;;;;5072273;28;20291;-66
2023/01/03 00:19:47;;;;;;;48.07;23.80;;;;;;;;;;5053598;28;20789;-66
2023/01/03 00:22:14;;;;;;;60.67;25.77;;;;;;;;;;5062054;28;20298;-66
2023/01/03 00:24:40;;;;;;;65.60;26.47;;;;;;;;;;5069839;28;22306;-66
2023/01/03 00:27:06;;;;;;;76.57;27.87;;;;;;;;;;5052204;28;20283;-66
2023/01/03 00:29:33;;;;;;;75.93;29.20;;;;;;;;;;5033984;28;20288;-66
2023/01/03 00:31:59;;;;;;;88.80;28.67;;;;;;;;;;5052101;28;20517;-65
2023/01/03 00:34:25;;;;;;;75.53;28.67;;;;;;;;;;5051667;28;20801;-66
2023/01/03 00:36:51;;;;;;;82.13;30.63;;;;;;;;;;5050436;28;20291;-65
2023/01/03 00:39:17;;;;;;;67.90;26.93;;;;;;;;;;5051852;28;20052;-66
2023/01/03 00:41:43;;;;;;;83.70;28.53;;;;;;;;;;5051442;28;20927;-65
2023/01/03 00:44:10;;;;;;;81.90;29.90;;;;;;;;;;5051650;28;20665;-66
2023/01/03 00:46:36;;;;;;;116.40;33.63;;;;;;;;;;5055314;28;20306;-65
2023/01/03 00:49:02;;;;;;;82.67;28.17;;;;;;;;;;5055247;28;20292;-65
2023/01/03 00:51:30;;;;;;;82.23;29.40;;;;;;;;;;5060028;28;20048;-65
2023/01/03 00:53:56;;;;;;;71.63;26.70;;;;;;;;;;5071512;28;20294;-65
2023/01/03 00:56:24;;;;;;;75.70;28.23;;;;;;;;;;5071503;28;20282;-65
2023/01/03 00:58:50;;;;;;;116.83;36.07;;;;;;;;;;5071435;28;20084;-65
2023/01/03 01:01:16;;;;;;;83.27;30.70;;;;;;;;;;5071648;28;20370;-65
2023/01/03 01:03:53;;;;;;;95.50;30.53;;;;;;;;;;5056962;28;20114;-64
2023/01/03 01:06:29;;;;;;;77.60;28.67;;;;;;;;;;5051286;28;20052;-65
2023/01/03 01:08:56;;;;;;;78.10;29.00;;;;;;;;;;5050465;28;20296;-64
2023/01/03 01:11:23;;;;;;;70.47;29.63;;;;;;;;;;5050188;28;20411;-65
2023/01/03 01:13:50;;;;;;;90.47;32.43;;;;;;;;;;5051650;28;20825;-65
2023/01/03 01:16:19;;;;;;;84.50;29.17;;;;;;;;;;5061424;28;20310;-65
2023/01/03 01:18:46;;;;;;;77.50;28.27;;;;;;;;;;5071122;28;20045;-65
2023/01/03 01:21:16;;;;;;;91.93;31.70;;;;;;;;;;5070966;28;20283;-65
2023/01/03 01:23:42;;;;;;;80.43;26.70;;;;;;;;;;5070321;28;20040;-65
2023/01/03 01:26:10;;;;;;;74.57;27.67;;;;;;;;;;5071035;28;20298;-64
2023/01/03 01:28:37;;;;;;;74.63;27.00;;;;;;;;;;5070709;28;20364;-64
2023/01/03 01:31:04;;;;;;;77.00;30.23;;;;;;;;;;5059606;28;20297;-65
2023/01/03 01:33:31;;;;;;;78.67;29.43;;;;;;;;;;5050167;28;20370;-64
2023/01/03 01:35:57;;;;;;;88.23;29.93;;;;;;;;;;5050979;28;20275;-65
2023/01/03 01:38:23;;;;;;;94.60;30.80;;;;;;;;;;5050565;28;20088;-64
2023/01/03 01:40:50;;;;;;;89.23;29.37;;;;;;;;;;5052721;28;20304;-64
2023/01/03 01:46:06;;;;;;;94.87;30.50;;;;;;;;;;5065809;28;20056;-64
2023/01/03 01:48:33;;;;;;;78.80;28.87;;;;;;;;;;5050383;28;20053;-64
2023/01/03 01:50:59;;;;;;;85.00;30.20;;;;;;;;;;5050684;28;20378;-64
2023/01/03 01:53:28;;;;;;;75.20;27.53;;;;;;;;;;5050215;28;20365;-64
2023/01/03 01:55:59;;;;;;;87.37;30.40;;;;;;;;;;5050369;28;20071;-64
2023/01/03 01:58:28;;;;;;;81.90;28.07;;;;;;;;;;5050270;28;20283;-64
2023/01/03 02:00:55;;;;;;;94.67;30.20;;;;;;;;;;5052448;28;20310;-64
2023/01/03 02:03:21;;;;;;;76.67;29.07;;;;;;;;;;5049921;28;20059;-63
2023/01/03 02:05:49;;;;;;;80.07;29.57;;;;;;;;;;5050301;28;20799;-64
2023/01/03 02:08:15;;;;;;;91.07;30.60;;;;;;;;;;5050264;28;20788;-64
2023/01/03 02:10:56;;;;;;;78.23;28.87;;;;;;;;;;5050262;28;20281;-64
2023/01/03 02:13:36;;;;;;;83.00;30.87;;;;;;;;;;5058448;28;20355;-64
2023/01/03 02:16:28;;;;;;;91.67;30.77;;;;;;;;;;5069857;28;20318;-64
2023/01/03 02:19:02;;;;;;;91.53;31.20;;;;;;;;;;5068651;28;20648;-64
2023/01/03 02:21:28;;;;;;;;;;;;;;;;;;5070660;28;20340;-64
2023/01/03 02:24:17;;;;;;;96.47;32.37;;;;;;;;;;5069103;28;19921;-64
2023/01/03 02:26:49;;;;;;;101.53;33.73;;;;;;;;;;5068351;28;20049;-65
2023/01/03 02:29:20;;;;;;;97.27;31.60;;;;;;;;;;5050041;28;20300;-64
2023/01/03 02:31:57;;;;;;;127.40;36.37;;;;;;;;;;5049500;28;20789;-64
2023/01/03 02:34:23;;;;;;;132.20;37.87;;;;;;;;;;5048422;28;20312;-64
2023/01/03 02:36:52;;;;;;;97.77;32.63;;;;;;;;;;5049503;28;20324;-64
2023/01/03 02:39:18;;;;;;;169.30;43.93;;;;;;;;;;5047864;28;20318;-64
2023/01/03 02:41:46;;;;;;;146.03;42.07;;;;;;;;;;5050809;28;20296;-64
2023/01/03 02:44:22;;;;;;;109.20;35.43;;;;;;;;;;5065873;28;20490;-65
2023/01/03 02:46:54;;;;;;;108.60;35.47;;;;;;;;;;5068760;28;20381;-64
2023/01/03 02:49:22;;;;;;;109.00;37.03;;;;;;;;;;5069225;28;20294;-64
2023/01/03 02:51:57;;;;;;;119.63;38.87;;;;;;;;;;5052847;28;20916;-64
2023/01/03 02:54:43;;;;;;;116.07;38.77;;;;;;;;;;5052384;28;20377;-63
2023/01/03 02:57:12;;;;;;;123.97;38.97;;;;;;;;;;5069648;28;20756;-63
2023/01/03 03:00:07;;;;;;;134.07;42.33;;;;;;;;;;5069021;28;20286;-64
2023/01/03 03:02:33;;;;;;;;;;;;;;;;;;5052070;28;20873;-63
2023/01/03 03:05:00;;;;;;;113.27;36.50;;;;;;;;;;5048945;28;19920;-64
2023/01/03 03:07:27;;;;;;;131.00;39.83;;;;;;;;;;5048859;28;20076;-64
2023/01/03 03:15:30;;;;;;;120.73;41.07;;;;;;;;;;5069253;28;20285;-63
2023/01/03 03:18:00;;;;;;;143.47;41.20;;;;;;;;;;5068119;28;20287;-63
2023/01/03 03:26:02;;;;;;;152.37;42.73;;;;;;;;;;5048984;28;20280;-63
2023/01/03 03:28:35;;;;;;;137.97;42.97;;;;;;;;;;5048917;28;20292;-63
2023/01/03 03:31:06;;;;;;;155.50;44.75;;;;;;;;;;5048886;28;20345;-63
2023/01/03 03:33:35;;;;;;;124.90;43.47;;;;;;;;;;5046773;28;20132;-63
2023/01/03 03:36:07;;;;;;;140.17;45.57;;;;;;;;;;5048520;28;20294;-63
2023/01/03 03:38:35;;;;;;;158.33;46.10;;;;;;;;;;5048637;28;20797;-63
2023/01/03 03:47:04;;;;;;;146.63;47.33;;;;;;;;;;5050924;28;20056;-63
2023/01/03 03:49:36;;;;;;;159.83;48.90;;;;;;;;;;5066166;28;20418;-63
2023/01/03 03:52:03;;;;;;;151.47;48.20;;;;;;;;;;5068531;28;20822;-63
2023/01/03 03:54:33;;;;;;;152.60;46.00;;;;;;;;;;5068305;28;20416;-63
2023/01/03 03:57:02;;;;;;;155.77;47.83;;;;;;;;;;5068528;28;20290;-63
2023/01/03 03:59:30;;;;;;;177.53;50.17;;;;;;;;;;5068244;28;21123;-63
2023/01/03 04:01:58;;;;;;;154.57;48.03;;;;;;;;;;5062818;28;20832;-63
2023/01/03 04:04:28;;;;;;;160.57;48.03;;;;;;;;;;5048314;28;20305;-63
2023/01/03 04:06:54;;;;;;;146.40;47.83;;;;;;;;;;5048745;28;20279;-63
2023/01/03 04:09:20;;;;;;;139.97;45.10;;;;;;;;;;5048323;28;20337;-63
2023/01/03 04:11:46;;;;;;;159.20;48.53;;;;;;;;;;5048357;28;20288;-63
2023/01/03 04:14:12;;;;;;;136.33;46.50;;;;;;;;;;5047707;28;20041;-63
2023/01/03 04:16:39;;;;;;;120.27;44.03;;;;;;;;;;5048746;28;20041;-63
2023/01/03 04:19:05;;;;;;;126.97;45.00;;;;;;;;;;5048259;28;20798;-63
2023/01/03 04:21:32;;;;;;;125.57;45.37;;;;;;;;;;5048310;28;20041;-63
2023/01/03 04:23:58;;;;;;;122.90;46.87;;;;;;;;;;5047517;28;20386;-62
2023/01/03 04:26:24;;;;;;;153.80;47.03;;;;;;;;;;5048143;28;20699;-63
2023/01/03 04:28:50;;;;;;;129.57;45.43;;;;;;;;;;5048022;28;20319;-63
2023/01/03 04:31:16;;;;;;;127.80;44.87;;;;;;;;;;5048387;28;20049;-63
2023/01/03 04:33:42;;;;;;;145.27;47.70;;;;;;;;;;5047647;28;20850;-63
2023/01/03 04:36:08;;;;;;;132.03;45.13;;;;;;;;;;5048115;28;20627;-63
2023/01/03 04:38:34;;;;;;;128.73;46.30;;;;;;;;;;5048054;28;20284;-62
2023/01/03 04:41:04;;;;;;;130.90;46.97;;;;;;;;;;5048382;28;20685;-63
2023/01/03 04:46:15;;;;;;;148.90;51.40;;;;;;;;;;5053105;28;20057;-63
2023/01/03 04:48:41;;;;;;;153.93;50.67;;;;;;;;;;5051084;28;20048;-63
2023/01/03 04:51:07;;;;;;;111.53;42.30;;;;;;;;;;5050682;28;20302;-63
2023/01/03 04:53:33;;;;;;;127.90;47.10;;;;;;;;;;5051617;28;20487;-63
2023/01/03 04:55:59;;;;;;;118.23;46.03;;;;;;;;;;5050426;28;20562;-62
2023/01/03 04:58:25;;;;;;;113.10;42.93;;;;;;;;;;5051284;28;20045;-63
2023/01/03 05:00:51;;;;;;;137.87;48.53;;;;;;;;;;5063737;28;20369;-62
2023/01/03 05:03:17;;;;;;;151.03;47.77;;;;;;;;;;5071066;28;20416;-62
2023/01/03 05:05:43;;;;;;;143.23;48.53;;;;;;;;;;5071236;28;20748;-63
2023/01/03 05:08:10;;;;;;;128.70;46.77;;;;;;;;;;5071593;28;20098;-62
2023/01/03 05:10:40;;;;;;;149.53;48.37;;;;;;;;;;5071556;28;20060;-63
2023/01/03 05:13:07;;;;;;;127.50;45.30;;;;;;;;;;5067981;28;20306;-62
2023/01/03 05:15:37;;;;;;;115.80;45.47;;;;;;;;;;5070833;28;20703;-62
2023/01/03 05:18:03;;;;;;;121.40;46.47;;;;;;;;;;5071377;28;20309;-63
2023/01/03 05:26:04;;;;;;;122.20;47.87;;;;;;;;;;5070939;28;20283;-62
2023/01/03 05:28:30;;;;;;;128.90;47.90;;;;;;;;;;5069511;28;20298;-62
2023/01/03 05:30:59;;;;;;;122.50;49.13;;;;;;;;;;5071270;28;20287;-62
2023/01/03 05:33:25;;;;;;;116.73;47.93;;;;;;;;;;5070702;28;20966;-62
2023/01/03 05:35:51;;;;;;;123.27;48.70;;;;;;;;;;5070784;28;20045;-62
2023/01/03 05:38:17;;;;;;;122.43;48.37;;;;;;;;;;5070798;28;20283;-62
2023/01/03 05:40:43;;;;;;;143.60;51.53;;;;;;;;;;5070675;28;20055;-62
2023/01/03 05:43:10;;;;;;;137.33;50.07;;;;;;;;;;5066216;28;20918;-62
2023/01/03 05:45:37;;;;;;;132.20;50.87;;;;;;;;;;5070345;28;20653;-62
2023/01/03 05:48:03;;;;;;;133.80;49.90;;;;;;;;;;5070671;28;20283;-62
2023/01/03 05:50:29;;;;;;;127.77;47.63;;;;;;;;;;5070497;28;20282;-62
2023/01/03 05:52:55;;;;;;;149.30;53.37;;;;;;;;;;5069402;28;20651;-62
2023/01/03 05:55:21;;;;;;;139.77;53.30;;;;;;;;;;5070032;28;20282;-62
2023/01/03 05:57:47;;;;;;;121.83;45.63;;;;;;;;;;5057952;28;20657;-62
2023/01/03 06:00:14;;;;;;;122.93;50.03;;;;;;;;;;5050090;28;20283;-62
2023/01/03 06:02:40;;;;;;;119.40;48.07;;;;;;;;;;5050248;28;20295;-62
2023/01/03 06:05:06;;;;;;;129.33;49.63;;;;;;;;;;5050142;28;20306;-62
2023/01/03 06:07:33;;;;;;;126.13;50.07;;;;;;;;;;5050028;28;20055;-62
2023/01/03 06:10:02;;;;;;;128.20;50.60;;;;;;;;;;5048904;28;20815;-62
2023/01/03 06:12:28;;;;;;;133.80;49.43;;;;;;;;;;5050069;28;20291;-62
2023/01/03 06:14:54;;;;;;;131.00;49.83;;;;;;;;;;5058003;28;20684;-62
2023/01/03 06:20:05;;;;;;;168.87;55.13;;;;;;;;;;5053788;28;20295;-62
2023/01/03 06:22:31;;;;;;;221.03;62.53;;;;;;;;;;5049977;28;20692;-62
2023/01/03 06:24:57;;;;;;;186.13;59.73;;;;;;;;;;5050356;28;20330;-61
2023/01/03 06:27:23;;;;;;;146.17;52.57;;;;;;;;;;5060553;28;20362;-61
2023/01/03 06:29:49;;;;;;;160.87;59.07;;;;;;;;;;5059644;28;21230;-62
2023/01/03 06:32:15;;;;;;;217.43;63.90;;;;;;;;;;5057111;28;20045;-62
2023/01/03 06:34:41;;;;;;;208.10;66.93;;;;;;;;;;5050097;28;20373;-62
2023/01/03 06:37:07;;;;;;;224.50;67.60;;;;;;;;;;5067990;28;20306;-61
2023/01/03 06:39:33;;;;;;;208.70;64.73;;;;;;;;;;5069994;28;20458;-63
2023/01/03 06:42:38;;;;;;;182.43;61.10;;;;;;;;;;5069484;28;20354;-62
2023/01/03 06:53:11;;;;;;;179.90;57.63;;;;;;;;;;5068351;28;20060;-61
2023/01/03 06:53:13;;;;;;;333.67;70.13;;;;;;;;;;5067286;28;20688;-62
2023/01/03 06:55:40;;;;;;;469.03;86.17;;;;;;;;;;5068561;28;20279;-62
2023/01/03 06:58:06;;;;;;;418.73;80.37;;;;;;;;;;5062730;28;20295;-62
2023/01/03 07:00:32;;;;;;;498.53;88.07;;;;;;;;;;5048184;28;20357;-62
2023/01/03 07:02:58;;;;;;;426.20;74.67;;;;;;;;;;5048989;28;20362;-62
2023/01/03 07:05:24;;;;;;;388.13;68.83;;;;;;;;;;5048828;28;20465;-62
2023/01/03 07:07:50;;;;;;;555.30;89.87;;;;;;;;;;5048934;28;20681;-63
2023/01/03 07:10:16;;;;;;;538.90;82.50;;;;;;;;;;5045677;28;20387;-63
2023/01/03 07:15:26;;;;;;;566.83;88.87;;;;;;;;;;5062053;28;20041;-63
2023/01/03 07:17:54;;;;;;;606.63;90.43;;;;;;;;;;5046522;28;20357;-63
2023/01/03 07:20:20;;;;;;;610.57;92.77;;;;;;;;;;5046388;28;20515;-63
2023/01/03 07:22:46;;;;;;;693.50;95.60;;;;;;;;;;5054854;28;20891;-63
2023/01/03 07:25:12;;;;;;;695.40;97.40;;;;;;;;;;5047970;28;20307;-63
2023/01/03 07:27:38;;;;;;;701.87;101.10;;;;;;;;;;5046612;28;20045;-64
2023/01/03 07:30:04;;;;;;;673.00;95.30;;;;;;;;;;5049414;28;20049;-63
2023/01/03 07:32:30;;;;;;;575.13;84.70;;;;;;;;;;5052336;28;20474;-63
2023/01/03 07:34:56;;;;;;;793.70;107.07;;;;;;;;;;5063613;28;20670;-64
2023/01/03 07:37:22;;;;;;;681.60;97.43;;;;;;;;;;5055108;28;20041;-64
2023/01/03 07:39:48;;;;;;;772.60;105.43;;;;;;;;;;5047414;28;20053;-64
2023/01/03 07:44:59;;;;;;;772.03;104.80;;;;;;;;;;5068287;28;20307;-64
2023/01/03 07:47:25;;;;;;;811.87;110.97;;;;;;;;;;5052962;28;20097;-64
2023/01/03 07:49:51;;;;;;;818.87;110.13;;;;;;;;;;5059008;28;20609;-64
2023/01/03 07:52:17;;;;;;;812.00;113.13;;;;;;;;;;5068433;28;20461;-64
2023/01/03 07:54:43;;;;;;;776.43;109.93;;;;;;;;;;5068540;28;20056;-65
2023/01/03 07:57:09;;;;;;;696.03;102.57;;;;;;;;;;5069036;28;20814;-65
2023/01/03 07:59:35;;;;;;;738.53;109.37;;;;;;;;;;5062252;28;20049;-66
2023/01/03 08:02:01;;;;;;;661.70;106.47;;;;;;;;;;5047858;28;20040;-65
2023/01/03 08:04:27;;;;;;;620.00;102.30;;;;;;;;;;5062645;28;20621;-66
2023/01/03 08:06:53;;;;;;;562.60;96.13;;;;;;;;;;5067936;28;20129;-66
2023/01/03 08:14:49;;;;;;;378.43;76.83;;;;;;;;;;5047954;28;20061;-66
2023/01/03 08:17:15;;;;;;;339.70;73.53;;;;;;;;;;5048684;28;20074;-66
2023/01/03 08:19:41;;;;;;;240.90;68.77;;;;;;;;;;5054539;28;20399;-67
2023/01/03 08:22:13;;;;;;;346.57;78.37;;;;;;;;;;5063820;28;20481;-67
2023/01/03 08:24:39;;;;;;;253.57;67.27;;;;;;;;;;5055617;28;20040;-66
2023/01/03 08:27:05;;;;;;;271.20;70.63;;;;;;;;;;5071708;28;20045;-66
2023/01/03 08:29:31;;;;;;;265.13;69.60;;;;;;;;;;5069471;28;20517;-66
2023/01/03 08:31:58;;;;;;;244.53;69.97;;;;;;;;;;5067767;28;20036;-67
2023/01/03 08:34:26;;;;;;;262.53;70.90;;;;;;;;;;5070298;28;20083;-66
2023/01/03 08:36:54;;;;;;;303.20;74.57;;;;;;;;;;5070514;28;20055;-66
2023/01/03 08:39:22;;;;;;;253.77;68.23;;;;;;;;;;5068827;28;20040;-66
2023/01/03 08:41:52;;;;;;;237.60;66.80;;;;;;;;;;5069141;28;20462;-66
2023/01/03 08:44:18;;;;;;;236.50;65.40;;;;;;;;;;5063253;28;20045;-66
2023/01/03 08:46:47;;;;;;;230.63;68.80;;;;;;;;;;5053063;28;20067;-66
2023/01/03 08:49:13;;;;;;;257.43;68.73;;;;;;;;;;5058227;28;20414;-65
2023/01/03 08:51:39;;;;;;;259.77;70.10;;;;;;;;;;5066695;28;20077;-66
2023/01/03 08:54:05;;;;;;;247.47;67.90;;;;;;;;;;5070116;28;20052;-65
2023/01/03 08:56:33;;;;;;;278.07;72.03;;;;;;;;;;5069975;28;20614;-65
2023/01/03 08:58:59;;;;;;;245.30;67.20;;;;;;;;;;5069972;28;20055;-65
2023/01/03 09:01:25;;;;;;;229.43;68.20;;;;;;;;;;5056211;28;20045;-66
2023/01/03 09:03:51;;;;;;;286.20;75.70;;;;;;;;;;5060894;28;20044;-66
2023/01/03 09:06:17;;;;;;;262.40;73.60;;;;;;;;;;5058223;28;20044;-66
2023/01/03 09:08:43;;;;;;;287.93;74.73;;;;;;;;;;5056027;28;20048;-66
2023/01/03 09:11:10;;;;;;;234.23;70.80;;;;;;;;;;5062227;28;20091;-66
2023/01/03 09:13:36;;;;;;;251.97;67.67;;;;;;;;;;5061312;28;20044;-66
2023/01/03 09:16:02;;;;;;;273.53;71.83;;;;;;;;;;5061206;28;20087;-66
2023/01/03 09:18:28;;;;;;;278.03;73.00;;;;;;;;;;5067450;28;20076;-66
2023/01/03 09:20:54;;;;;;;300.23;75.10;;;;;;;;;;5067207;28;20044;-66
2023/01/03 09:23:20;;;;;;;300.37;74.97;;;;;;;;;;5070061;28;20521;-65
2023/01/03 09:25:47;;;;;;;250.60;72.23;;;;;;;;;;5068563;28;20041;-66
2023/01/03 09:28:13;;;;;;;255.07;72.00;;;;;;;;;;5070407;28;20055;-66
2023/01/03 09:30:39;;;;;;;273.60;70.67;;;;;;;;;;5062262;28;20045;-66
2023/01/03 09:33:05;;;;;;;252.33;68.57;;;;;;;;;;5048993;28;20044;-67
2023/01/03 09:35:32;;;;;;;239.30;69.03;;;;;;;;;;5048359;28;20051;-66
2023/01/03 09:37:58;;;;;;;221.30;64.93;;;;;;;;;;5048909;28;20057;-66
2023/01/03 09:40:25;;;;;;;237.83;70.20;;;;;;;;;;5047359;28;20059;-66
2023/01/03 09:45:38;;;;;;;284.70;73.43;;;;;;;;;;5059961;28;20494;-66
2023/01/03 09:48:05;;;;;;;268.10;74.00;;;;;;;;;;5057188;28;20044;-67
2023/01/03 09:50:36;;;;;;;259.37;71.33;;;;;;;;;;5067269;28;20632;-67
2023/01/03 10:04:28;;;;;;;268.10;75.53;;;;;;;;;;5062630;28;20045;-66
2023/01/03 10:07:04;;;;;;;266.20;76.20;;;;;;;;;;5069893;28;20045;-67
2023/01/03 10:09:30;;;;;;;235.30;70.60;;;;;;;;;;5067844;28;20525;-66
2023/01/03 10:12:15;;;;;;;209.53;68.60;;;;;;;;;;5068300;28;20052;-69
2023/01/03 10:14:41;;;;;;;244.57;72.63;;;;;;;;;;5059021;28;20075;-67
2023/01/03 10:17:29;;;;;;;243.97;74.80;;;;;;;;;;5069214;28;20052;-67
2023/01/03 10:20:13;;;;;;;232.10;67.97;;;;;;;;;;5067463;28;20410;-66
2023/01/03 10:22:39;;;;;;;176.82;64.10;;;;;;;;;;5061133;28;20517;-66
2023/01/03 10:25:05;;;;;;;191.97;64.90;;;;;;;;;;5069479;28;20388;-66
2023/01/03 10:27:32;;;;;;;203.83;64.83;;;;;;;;;;5064788;28;20047;-66
2023/01/03 10:30:03;;;;;;;187.30;58.07;;;;;;;;;;5050582;28;20048;-66
2023/01/03 10:32:55;;;;;;;178.50;61.13;;;;;;;;;;5052966;28;20101;-66
2023/01/03 10:35:22;;;;;;;150.90;53.33;;;;;;;;;;5068500;28;20048;-67
2023/01/03 10:37:52;;;;;;;160.70;53.17;;;;;;;;;;5069256;28;20051;-67
2023/01/03 10:40:18;;;;;;;125.37;46.67;;;;;;;;;;5063364;28;20430;-67
2023/01/03 10:42:45;;;;;;;111.67;46.03;;;;;;;;;;5065300;28;20072;-66
2023/01/03 10:45:12;;;;;;;108.50;44.47;;;;;;;;;;5066849;28;20052;-67
2023/01/03 10:47:38;;;;;;;123.33;47.17;;;;;;;;;;5065186;28;20044;-67
2023/01/03 10:50:05;;;;;;;118.27;44.70;;;;;;;;;;5061532;28;20352;-67
2023/01/03 10:52:37;;;;;;;99.87;40.33;;;;;;;;;;5048721;28;20049;-66
2023/01/03 10:55:10;;;;;;;78.50;39.07;;;;;;;;;;5051673;28;20036;-66
2023/01/03 10:57:44;;;;;;;89.75;37.45;;;;;;;;;;5057281;28;20495;-66
2023/01/03 11:00:30;;;;;;;110.37;40.77;;;;;;;;;;5059599;28;20052;-66
2023/01/03 11:03:09;;;;;;;81.80;36.63;;;;;;;;;;5064117;28;20116;-66
2023/01/03 11:05:35;;;;;;;81.60;34.87;;;;;;;;;;5053924;28;20052;-66
2023/01/03 11:08:03;;;;;;;91.90;37.70;;;;;;;;;;5068911;28;20076;-66
2023/01/03 11:10:33;;;;;;;76.07;34.03;;;;;;;;;;5067813;28;20044;-67
2023/01/03 11:12:59;;;;;;;84.63;36.33;;;;;;;;;;5062823;28;20128;-66
2023/01/03 11:15:31;;;;;;;99.43;39.77;;;;;;;;;;5066310;28;20182;-66
2023/01/03 11:18:05;;;;;;;82.80;35.53;;;;;;;;;;5068027;28;20049;-67
2023/01/03 11:20:38;;;;;;;72.40;33.33;;;;;;;;;;5054757;28;20045;-66
2023/01/03 11:23:07;;;;;;;74.85;33.63;;;;;;;;;;5056630;28;20048;-66
2023/01/03 11:25:47;;;;;;;75.17;34.17;;;;;;;;;;5068744;28;20083;-66
2023/01/03 11:28:13;;;;;;;73.60;33.67;;;;;;;;;;5067584;28;20059;-66
2023/01/03 11:30:58;;;;;;;72.97;33.67;;;;;;;;;;5055922;28;20052;-66
2023/01/03 11:33:24;;;;;;;70.87;32.97;;;;;;;;;;5057904;28;20062;-66
2023/01/03 11:36:02;;;;;;;82.67;34.50;;;;;;;;;;5061111;28;20858;-66
2023/01/03 11:38:28;;;;;;;70.13;31.93;;;;;;;;;;5051763;28;20384;-66
2023/01/03 11:41:00;;;;;;;68.87;30.33;;;;;;;;;;5052602;28;20080;-66
2023/01/03 11:43:37;;;;;;;71.57;31.23;;;;;;;;;;5059688;28;20045;-66
2023/01/03 11:46:23;;;;;;;74.57;31.97;;;;;;;;;;5056726;28;20430;-66
2023/01/03 11:49:08;;;;;;;65.83;31.73;;;;;;;;;;5064141;28;20128;-66
2023/01/03 11:51:40;;;;;;;85.53;33.93;;;;;;;;;;5064183;28;20041;-67
2023/01/03 11:54:06;;;;;;;74.33;32.70;;;;;;;;;;5058426;28;20040;-66
2023/01/03 11:56:38;;;;;;;73.10;30.87;;;;;;;;;;5064655;28;20051;-66
2023/01/03 11:59:16;;;;;;;72.57;30.30;;;;;;;;;;5065303;28;20048;-66
2023/01/03 12:01:47;;;;;;;77.60;29.67;;;;;;;;;;5063187;28;20084;-66
2023/01/03 12:04:32;;;;;;;78.87;30.47;;;;;;;;;;5060362;28;20119;-65
2023/01/03 12:06:59;;;;;;;94.13;35.17;;;;;;;;;;5059548;28;20037;-65
2023/01/03 12:09:30;;;;;;;77.73;32.50;;;;;;;;;;5059846;28;20059;-65
2023/01/03 12:12:06;;;;;;;92.07;36.57;;;;;;;;;;5059292;28;20041;-65
2023/01/03 12:14:41;;;;;;;74.17;32.07;;;;;;;;;;5061550;28;20081;-66
2023/01/03 12:17:10;;;;;;;83.83;33.67;;;;;;;;;;5059424;28;20127;-65
2023/01/03 12:19:43;;;;;;;93.40;34.67;;;;;;;;;;5058953;28;20419;-66
2023/01/03 12:22:15;;;;;;;82.57;32.15;;;;;;;;;;5061263;28;20032;-65
2023/01/03 12:24:46;;;;;;;91.47;33.23;;;;;;;;;;5067022;28;20076;-65
2023/01/03 12:27:17;;;;;;;94.33;35.87;;;;;;;;;;5051267;28;20396;-65
2023/01/03 12:29:56;;;;;;;84.70;34.40;;;;;;;;;;5052563;28;20060;-65
2023/01/03 12:32:28;;;;;;;82.47;32.93;;;;;;;;;;5059962;28;20135;-65
2023/01/03 12:35:10;;;;;;;101.50;36.23;;;;;;;;;;5071345;28;20263;-66
2023/01/03 12:37:38;;;;;;;82.80;35.30;;;;;;;;;;5071536;28;20048;-65
2023/01/03 12:40:21;;;;;;;86.83;35.03;;;;;;;;;;5071899;28;20128;-65
2023/01/03 12:42:57;;;;;;;93.03;35.20;;;;;;;;;;5056314;28;20041;-65
2023/01/03 12:45:23;;;;;;;88.17;35.03;;;;;;;;;;5050937;28;20053;-65
2023/01/03 12:47:54;;;;;;;81.20;33.30;;;;;;;;;;5070968;28;20098;-64
2023/01/03 12:50:39;;;;;;;80.50;31.73;;;;;;;;;;5070482;28;20090;-65
2023/01/03 12:53:10;;;;;;;70.90;30.60;;;;;;;;;;5070921;28;20060;-64
2023/01/03 12:55:51;;;;;;;73.83;29.20;;;;;;;;;;5069530;28;20044;-64
2023/01/03 12:58:25;;;;;;;79.20;33.33;;;;;;;;;;5070877;28;20098;-64
2023/01/03 13:00:51;;;;;;;75.77;31.23;;;;;;;;;;5066605;28;20072;-65
2023/01/03 13:03:24;;;;;;;91.70;33.93;;;;;;;;;;5062396;28;20045;-64
2023/01/03 13:05:53;;;;;;;56.43;26.77;;;;;;;;;;5047996;28;20605;-65
2023/01/03 13:08:26;;;;;;;92.30;33.27;;;;;;;;;;5047701;28;20076;-65
2023/01/03 13:10:54;;;;;;;81.43;30.92;;;;;;;;;;5048199;28;20577;-65
2023/01/03 13:13:21;;;;;;;68.40;28.17;;;;;;;;;;5049012;28;20045;-64
2023/01/03 13:15:47;;;;;;;62.70;26.73;;;;;;;;;;5050314;28;20136;-64
2023/01/03 13:18:22;;;;;;;72.93;30.83;;;;;;;;;;5050532;28;20048;-64
2023/01/03 13:20:52;;;;;;;54.47;26.23;;;;;;;;;;5049952;28;20056;-65
2023/01/03 13:23:29;;;;;;;60.17;27.10;;;;;;;;;;5050443;28;20328;-65
2023/01/03 13:26:04;;;;;;;57.43;26.63;;;;;;;;;;5049065;28;20132;-64
2023/01/03 13:28:32;;;;;;;50.80;23.53;;;;;;;;;;5049879;28;20052;-65
2023/01/03 13:31:13;;;;;;;52.17;21.07;;;;;;;;;;5067654;28;20041;-65
2023/01/03 13:33:53;;;;;;;47.23;21.57;;;;;;;;;;5070154;28;20064;-65
2023/01/03 13:36:19;;;;;;;49.20;21.23;;;;;;;;;;5069949;28;20049;-65
2023/01/03 13:38:46;;;;;;;44.23;20.43;;;;;;;;;;5070237;28;20578;-65
2023/01/03 13:41:30;;;;;;;54.83;21.47;;;;;;;;;;5059215;28;20048;-64
2023/01/03 13:44:06;;;;;;;46.90;20.43;;;;;;;;;;5064346;28;20056;-64
2023/01/03 13:46:32;;;;;;;35.83;18.47;;;;;;;;;;5069685;28;20510;-64
2023/01/03 13:49:00;;;;;;;37.40;17.90;;;;;;;;;;5069611;28;20558;-65
2023/01/03 13:51:26;;;;;;;44.83;19.03;;;;;;;;;;5070148;28;20095;-64
2023/01/03 13:53:54;;;;;;;40.70;18.40;;;;;;;;;;5069667;28;20048;-64
2023/01/03 13:56:25;;;;;;;39.10;18.70;;;;;;;;;;5069216;28;20071;-64
2023/01/03 13:58:55;;;;;;;43.93;19.10;;;;;;;;;;5051614;28;20049;-64
2023/01/03 14:01:28;;;;;;;44.40;19.10;;;;;;;;;;5047998;28;20628;-64
2023/01/03 14:04:12;;;;;;;32.72;18.13;;;;;;;;;;5068438;28;20037;-64
2023/01/03 14:07:04;;;;;;;31.10;17.87;;;;;;;;;;5058295;28;20052;-64
2023/01/03 14:09:49;;;;;;;37.73;17.00;;;;;;;;;;5047652;28;20056;-64
2023/01/03 14:12:18;;;;;;;30.20;16.03;;;;;;;;;;5054848;28;20040;-64
2023/01/03 14:14:47;;;;;;;34.50;17.27;;;;;;;;;;5068145;28;20056;-64
2023/01/03 14:17:16;;;;;;;36.77;17.63;;;;;;;;;;5069457;28;20414;-64
2023/01/03 14:19:46;;;;;;;33.07;17.20;;;;;;;;;;5069419;28;20041;-64
2023/01/03 14:22:18;;;;;;;32.37;16.47;;;;;;;;;;5068747;28;20048;-64
2023/01/03 14:24:47;;;;;;;42.30;17.63;;;;;;;;;;5066850;28;20423;-65
2023/01/03 14:27:13;;;;;;;29.67;15.53;;;;;;;;;;5056610;28;20127;-64
2023/01/03 14:29:41;;;;;;;33.73;15.63;;;;;;;;;;5069107;28;20518;-64
2023/01/03 14:32:17;;;;;;;33.90;15.90;;;;;;;;;;5055923;28;20067;-64
2023/01/03 14:34:43;;;;;;;29.70;14.97;;;;;;;;;;5050004;28;20095;-65
2023/01/03 14:37:14;;;;;;;31.93;15.50;;;;;;;;;;5052506;28;20465;-64
2023/01/03 14:39:50;;;;;;;28.67;14.97;;;;;;;;;;5048992;28;20052;-64
2023/01/03 14:42:16;;;;;;;33.97;17.03;;;;;;;;;;5053118;28;20049;-64
2023/01/03 14:44:42;;;;;;;31.10;14.70;;;;;;;;;;5048473;28;20051;-65
2023/01/03 14:47:13;;;;;;;31.60;15.83;;;;;;;;;;5048128;28;20056;-64
2023/01/03 14:49:40;;;;;;;30.67;15.27;;;;;;;;;;5048586;28;20056;-64
2023/01/03 14:52:21;;;;;;;30.03;15.37;;;;;;;;;;5049258;28;20136;-64
2023/01/03 14:54:53;;;;;;;26.83;15.57;;;;;;;;;;5063974;28;20072;-64
2023/01/03 14:57:20;;;;;;;31.10;16.37;;;;;;;;;;5058287;28;20045;-64
2023/01/03 14:59:46;;;;;;;25.03;15.67;;;;;;;;;;5066228;28;20051;-64
2023/01/03 15:02:14;;;;;;;27.90;14.73;;;;;;;;;;5065424;28;20124;-64
2023/01/03 15:04:42;;;;;;;31.90;14.67;;;;;;;;;;5049166;28;20060;-64
2023/01/03 15:07:24;;;;;;;29.10;14.67;;;;;;;;;;5047811;28;20060;-64
2023/01/03 15:10:00;;;;;;;29.83;15.40;;;;;;;;;;5048831;28;20428;-64
2023/01/03 15:12:27;;;;;;;26.40;13.23;;;;;;;;;;5048749;28;20069;-65
2023/01/03 15:14:53;;;;;;;23.13;12.23;;;;;;;;;;5048656;28;20037;-64
2023/01/03 15:17:22;;;;;;;25.73;13.07;;;;;;;;;;5048767;28;20060;-64
2023/01/03 15:19:55;;;;;;;23.77;12.70;;;;;;;;;;5047360;28;20056;-64
2023/01/03 15:22:24;;;;;;;25.75;11.05;;;;;;;;;;5049443;28;20117;-64
2023/01/03 15:24:54;;;;;;;20.27;11.80;;;;;;;;;;5049529;28;20422;-64